sensor_id;sensor_type;location;lat;lon;timestamp;temperature;humidity
5007;DHT22;2522;50.972;11.046;2022-08-21T05:02:27;17.40;99.90
5007;DHT22;2522;50.972;11.046;2022-08-21T05:04:55;17.40;99.90
5007;DHT22;2522;50.972;11.046;2022-08-21T05:07:25;17.50;99.90
5007;DHT22;2522;50.972;11.046;2022-08-21T05:09:54;17.50;99.90
5007;DHT22;2522;50.972;11.046;2022-08-21T05:12:21;17.60;99.90
5007;DHT22;2522;50.972;11.046;2022-08-21T05:14:48;17.60;99.90
5007;DHT22;2522;50.972;11.046;2022-08-21T05:17:18;17.70;99.90
5007;DHT22;2522;50.972;11.046;2022-08-21T05:19:46;17.90;99.90
5007;DHT22;2522;50.972;11.046;2022-08-21T05:22:19;17.90;99.90
5007;DHT22;2522;50.972;11.046;2022-08-21T05:24:46;18.00;99.90
5007;DHT22;2522;50.972;11.046;2022-08-21T05:27:13;18.00;99.90
5007;DHT22;2522;50.972;11.046;2022-08-21T05:29:39;18.00;99.90
5007;DHT22;2522;50.972;11.046;2022-08-21T05:32:09;18.10;99.90
5007;DHT22;2522;50.972;11.046;2022-08-21T05:34:36;18.10;99.90
5007;DHT22;2522;50.972;11.046;2022-08-21T05:37:04;18.20;99.90
5007;DHT22;2522;50.972;11.046;2022-08-21T05:39:32;18.30;99.90
5007;DHT22;2522;50.972;11.046;2022-08-21T05:41:58;18.40;99.90
5007;DHT22;2522;50.972;11.046;2022-08-21T05:44:25;18.50;99.90
5007;DHT22;2522;50.972;11.046;2022-08-21T05:46:52;18.60;99.90
5007;DHT22;2522;50.972;11.046;2022-08-21T05:49:19;18.60;99.90
5007;DHT22;2522;50.972;11.046;2022-08-21T05:51:46;18.80;99.90
5007;DHT22;2522;50.972;11.046;2022-08-21T05:54:14;18.90;99.90
5007;DHT22;2522;50.972;11.046;2022-08-21T05:56:43;19.00;99.90
5007;DHT22;2522;50.972;11.046;2022-08-21T05:59:10;19.00;99.90
5007;DHT22;2522;50.972;11.046;2022-08-21T06:01:39;19.00;99.90
5007;DHT22;2522;50.972;11.046;2022-08-21T06:04:06;19.10;99.90
5007;DHT22;2522;50.972;11.046;2022-08-21T06:06:32;19.10;99.90
5007;DHT22;2522;50.972;11.046;2022-08-21T06:08:59;19.10;99.90
5007;DHT22;2522;50.972;11.046;2022-08-21T06:11:27;19.10;99.90
5007;DHT22;2522;50.972;11.046;2022-08-21T06:13:55;19.20;99.90
5007;DHT22;2522;50.972;11.046;2022-08-21T06:16:22;19.30;99.90
5007;DHT22;2522;50.972;11.046;2022-08-21T06:18:49;19.40;99.90
5007;DHT22;2522;50.972;11.046;2022-08-21T06:21:16;19.50;99.90
5007;DHT22;2522;50.972;11.046;2022-08-21T06:23:43;19.50;99.90
5007;DHT22;2522;50.972;11.046;2022-08-21T06:26:12;19.50;99.90
5007;DHT22;2522;50.972;11.046;2022-08-21T06:28:41;19.60;99.90
5007;DHT22;2522;50.972;11.046;2022-08-21T06:31:13;19.50;99.90
5007;DHT22;2522;50.972;11.046;2022-08-21T06:33:43;19.50;99.90
5007;DHT22;2522;50.972;11.046;2022-08-21T06:36:10;19.50;99.90
5007;DHT22;2522;50.972;11.046;2022-08-21T06:38:37;19.50;99.90
5007;DHT22;2522;50.972;11.046;2022-08-21T06:41:04;19.60;99.90
5007;DHT22;2522;50.972;11.046;2022-08-21T06:43:31;19.70;99.90
5007;DHT22;2522;50.972;11.046;2022-08-21T06:46:00;19.70;99.90
5007;DHT22;2522;50.972;11.046;2022-08-21T06:48:26;19.80;99.90
5007;DHT22;2522;50.972;11.046;2022-08-21T06:50:55;19.90;99.90
5007;DHT22;2522;50.972;11.046;2022-08-21T06:53:22;20.00;99.90
5007;DHT22;2522;50.972;11.046;2022-08-21T06:55:49;20.00;99.90
5007;DHT22;2522;50.972;11.046;2022-08-21T06:58:16;20.10;99.90
5007;DHT22;2522;50.972;11.046;2022-08-21T07:00:47;20.10;99.90
5007;DHT22;2522;50.972;11.046;2022-08-21T07:03:21;20.20;99.90
5007;DHT22;2522;50.972;11.046;2022-08-21T07:05:48;20.20;99.90
5007;DHT22;2522;50.972;11.046;2022-08-21T07:08:17;20.30;99.90
5007;DHT22;2522;50.972;11.046;2022-08-21T07:10:44;20.40;99.90
5007;DHT22;2522;50.972;11.046;2022-08-21T07:13:12;20.40;99.90
5007;DHT22;2522;50.972;11.046;2022-08-21T07:15:39;20.50;99.90
5007;DHT22;2522;50.972;11.046;2022-08-21T07:18:06;20.60;99.90
5007;DHT22;2522;50.972;11.046;2022-08-21T07:20:34;20.70;99.90
5007;DHT22;2522;50.972;11.046;2022-08-21T07:23:04;20.80;99.90
5007;DHT22;2522;50.972;11.046;2022-08-21T07:25:31;20.90;99.90
5007;DHT22;2522;50.972;11.046;2022-08-21T07:27:58;21.00;99.90
5007;DHT22;2522;50.972;11.046;2022-08-21T07:30:25;21.10;99.90
5007;DHT22;2522;50.972;11.046;2022-08-21T07:32:53;21.20;99.90
5007;DHT22;2522;50.972;11.046;2022-08-21T07:35:20;21.30;99.90
5007;DHT22;2522;50.972;11.046;2022-08-21T07:37:49;21.50;99.90
5007;DHT22;2522;50.972;11.046;2022-08-21T07:40:16;21.70;99.90
5007;DHT22;2522;50.972;11.046;2022-08-21T07:42:45;21.80;99.90
5007;DHT22;2522;50.972;11.046;2022-08-21T07:45:14;21.90;99.90
5007;DHT22;2522;50.972;11.046;2022-08-21T07:47:41;22.00;99.90
5007;DHT22;2522;50.972;11.046;2022-08-21T07:50:08;22.10;99.90
5007;DHT22;2522;50.972;11.046;2022-08-21T07:52:35;22.20;99.90
5007;DHT22;2522;50.972;11.046;2022-08-21T07:55:08;22.20;99.90
5007;DHT22;2522;50.972;11.046;2022-08-21T07:57:35;22.30;99.90
5007;DHT22;2522;50.972;11.046;2022-08-21T08:00:03;22.40;99.90
5007;DHT22;2522;50.972;11.046;2022-08-21T08:02:30;22.50;99.90
5007;DHT22;2522;50.972;11.046;2022-08-21T08:04:59;22.70;99.90
5007;DHT22;2522;50.972;11.046;2022-08-21T08:07:26;22.80;99.90
5007;DHT22;2522;50.972;11.046;2022-08-21T08:09:53;23.00;99.90
5007;DHT22;2522;50.972;11.046;2022-08-21T08:12:22;23.00;99.90
5007;DHT22;2522;50.972;11.046;2022-08-21T08:14:52;23.10;99.90
5007;DHT22;2522;50.972;11.046;2022-08-21T08:17:19;23.10;99.90
5007;DHT22;2522;50.972;11.046;2022-08-21T08:19:48;23.10;99.90
5007;DHT22;2522;50.972;11.046;2022-08-21T08:22:21;23.10;99.90
5007;DHT22;2522;50.972;11.046;2022-08-21T08:24:49;23.10;99.90
5007;DHT22;2522;50.972;11.046;2022-08-21T08:27:17;23.20;99.90
5007;DHT22;2522;50.972;11.046;2022-08-21T08:29:46;23.20;99.90
5007;DHT22;2522;50.972;11.046;2022-08-21T08:32:13;23.30;99.90
5007;DHT22;2522;50.972;11.046;2022-08-21T08:34:40;23.30;99.90
5007;DHT22;2522;50.972;11.046;2022-08-21T08:37:08;23.40;99.90
5007;DHT22;2522;50.972;11.046;2022-08-21T08:39:36;23.50;99.90
5007;DHT22;2522;50.972;11.046;2022-08-21T08:42:07;23.70;99.90
5007;DHT22;2522;50.972;11.046;2022-08-21T08:44:36;23.90;99.90
5007;DHT22;2522;50.972;11.046;2022-08-21T08:47:08;24.00;99.90
5007;DHT22;2522;50.972;11.046;2022-08-21T08:49:39;24.00;99.90
5007;DHT22;2522;50.972;11.046;2022-08-21T08:52:20;24.00;99.90
5007;DHT22;2522;50.972;11.046;2022-08-21T08:54:52;24.00;99.90
5007;DHT22;2522;50.972;11.046;2022-08-21T08:57:23;24.00;99.90
5007;DHT22;2522;50.972;11.046;2022-08-21T08:59:53;23.90;99.90
5007;DHT22;2522;50.972;11.046;2022-08-21T09:02:22;24.00;99.90
5007;DHT22;2522;50.972;11.046;2022-08-21T09:04:50;24.10;99.90
5007;DHT22;2522;50.972;11.046;2022-08-21T09:07:28;24.10;99.90
5007;DHT22;2522;50.972;11.046;2022-08-21T09:10:06;24.20;99.90
5007;DHT22;2522;50.972;11.046;2022-08-21T09:12:45;24.10;99.90
5007;DHT22;2522;50.972;11.046;2022-08-21T09:15:23;24.10;99.90
5007;DHT22;2522;50.972;11.046;2022-08-21T09:18:11;24.30;99.90
5007;DHT22;2522;50.972;11.046;2022-08-21T09:20:44;24.50;99.90
5007;DHT22;2522;50.972;11.046;2022-08-21T09:23:22;24.70;99.90
5007;DHT22;2522;50.972;11.046;2022-08-21T09:26:00;24.80;99.90
5007;DHT22;2522;50.972;11.046;2022-08-21T09:28:31;24.90;99.90
5007;DHT22;2522;50.972;11.046;2022-08-21T09:30:58;25.10;99.90
5007;DHT22;2522;50.972;11.046;2022-08-21T09:33:29;25.10;99.90
5007;DHT22;2522;50.972;11.046;2022-08-21T09:35:56;25.20;99.90
5007;DHT22;2522;50.972;11.046;2022-08-21T09:38:27;25.30;99.90
5007;DHT22;2522;50.972;11.046;2022-08-21T09:41:00;25.20;99.90
5007;DHT22;2522;50.972;11.046;2022-08-21T09:43:28;25.20;99.90
5007;DHT22;2522;50.972;11.046;2022-08-21T09:46:05;25.10;99.90
5007;DHT22;2522;50.972;11.046;2022-08-21T09:48:41;25.10;99.90
5007;DHT22;2522;50.972;11.046;2022-08-21T09:51:13;25.10;99.90
5007;DHT22;2522;50.972;11.046;2022-08-21T09:53:45;25.10;99.90
5007;DHT22;2522;50.972;11.046;2022-08-21T09:56:25;25.10;99.90
5007;DHT22;2522;50.972;11.046;2022-08-21T09:59:15;25.30;99.90
5007;DHT22;2522;50.972;11.046;2022-08-21T10:01:47;25.60;99.90
5007;DHT22;2522;50.972;11.046;2022-08-21T10:04:20;25.80;99.90
5007;DHT22;2522;50.972;11.046;2022-08-21T10:06:49;25.80;99.90
5007;DHT22;2522;50.972;11.046;2022-08-21T10:09:20;25.80;99.90
5007;DHT22;2522;50.972;11.046;2022-08-21T10:11:55;25.90;99.90
5007;DHT22;2522;50.972;11.046;2022-08-21T10:14:40;25.90;99.90
5007;DHT22;2522;50.972;11.046;2022-08-21T10:17:17;25.90;99.90
5007;DHT22;2522;50.972;11.046;2022-08-21T10:19:56;25.80;99.90
5007;DHT22;2522;50.972;11.046;2022-08-21T10:22:34;25.60;99.90
5007;DHT22;2522;50.972;11.046;2022-08-21T10:25:11;25.60;99.90
5007;DHT22;2522;50.972;11.046;2022-08-21T10:27:51;25.80;99.90
5007;DHT22;2522;50.972;11.046;2022-08-21T10:30:27;25.80;99.90
5007;DHT22;2522;50.972;11.046;2022-08-21T10:33:04;25.60;99.90
5007;DHT22;2522;50.972;11.046;2022-08-21T10:35:40;25.60;99.90
5007;DHT22;2522;50.972;11.046;2022-08-21T10:38:34;25.70;99.90
5007;DHT22;2522;50.972;11.046;2022-08-21T10:41:10;25.80;99.90
5007;DHT22;2522;50.972;11.046;2022-08-21T10:43:49;25.80;99.90
5007;DHT22;2522;50.972;11.046;2022-08-21T10:46:26;25.80;99.90
5007;DHT22;2522;50.972;11.046;2022-08-21T10:48:59;25.80;99.90
5007;DHT22;2522;50.972;11.046;2022-08-21T10:51:37;25.50;99.90
5007;DHT22;2522;50.972;11.046;2022-08-21T10:54:12;25.30;99.90
5007;DHT22;2522;50.972;11.046;2022-08-21T10:56:45;25.20;99.90
5007;DHT22;2522;50.972;11.046;2022-08-21T10:59:24;25.10;99.90
5007;DHT22;2522;50.972;11.046;2022-08-21T11:01:56;25.10;99.90
5007;DHT22;2522;50.972;11.046;2022-08-21T11:04:28;25.10;99.90
5007;DHT22;2522;50.972;11.046;2022-08-21T11:07:03;25.30;99.90
5007;DHT22;2522;50.972;11.046;2022-08-21T11:09:32;25.50;99.90
5007;DHT22;2522;50.972;11.046;2022-08-21T11:12:05;25.70;99.90
5007;DHT22;2522;50.972;11.046;2022-08-21T11:14:40;25.70;99.90
5007;DHT22;2522;50.972;11.046;2022-08-21T11:17:10;25.70;99.90
5007;DHT22;2522;50.972;11.046;2022-08-21T11:19:45;25.70;99.90
5007;DHT22;2522;50.972;11.046;2022-08-21T11:22:19;25.90;99.90
5007;DHT22;2522;50.972;11.046;2022-08-21T11:24:54;26.10;99.90
5007;DHT22;2522;50.972;11.046;2022-08-21T11:27:23;26.10;99.90
5007;DHT22;2522;50.972;11.046;2022-08-21T11:29:54;26.20;99.90
5007;DHT22;2522;50.972;11.046;2022-08-21T11:32:38;26.30;99.60
5007;DHT22;2522;50.972;11.046;2022-08-21T11:35:16;26.40;98.60
5007;DHT22;2522;50.972;11.046;2022-08-21T11:38:03;26.40;97.80
5007;DHT22;2522;50.972;11.046;2022-08-21T11:40:49;26.40;97.60
5007;DHT22;2522;50.972;11.046;2022-08-21T11:43:25;26.60;98.10
5007;DHT22;2522;50.972;11.046;2022-08-21T11:45:57;26.80;97.70
5007;DHT22;2522;50.972;11.046;2022-08-21T11:48:36;26.90;96.80
5007;DHT22;2522;50.972;11.046;2022-08-21T11:51:12;26.90;94.20
5007;DHT22;2522;50.972;11.046;2022-08-21T11:53:46;26.90;93.20
5007;DHT22;2522;50.972;11.046;2022-08-21T11:56:21;26.80;93.10
5007;DHT22;2522;50.972;11.046;2022-08-21T11:58:53;26.80;92.80
5007;DHT22;2522;50.972;11.046;2022-08-21T12:01:23;26.80;93.00
5007;DHT22;2522;50.972;11.046;2022-08-21T12:03:54;26.90;93.20
5007;DHT22;2522;50.972;11.046;2022-08-21T12:06:30;27.00;93.20
5007;DHT22;2522;50.972;11.046;2022-08-21T12:09:02;27.10;93.60
5007;DHT22;2522;50.972;11.046;2022-08-21T12:11:29;27.30;92.90
5007;DHT22;2522;50.972;11.046;2022-08-21T12:14:00;27.30;92.30
5007;DHT22;2522;50.972;11.046;2022-08-21T12:16:32;27.30;91.30
5007;DHT22;2522;50.972;11.046;2022-08-21T12:19:05;27.30;91.00
5007;DHT22;2522;50.972;11.046;2022-08-21T12:21:33;27.40;90.50
5007;DHT22;2522;50.972;11.046;2022-08-21T12:24:05;27.50;90.50
5007;DHT22;2522;50.972;11.046;2022-08-21T12:26:49;27.70;90.50
5007;DHT22;2522;50.972;11.046;2022-08-21T12:29:24;27.60;89.90
5007;DHT22;2522;50.972;11.046;2022-08-21T12:31:58;27.30;89.00
5007;DHT22;2522;50.972;11.046;2022-08-21T12:34:32;27.20;88.50
5007;DHT22;2522;50.972;11.046;2022-08-21T12:37:02;27.20;89.20
5007;DHT22;2522;50.972;11.046;2022-08-21T12:39:33;27.40;89.60
5007;DHT22;2522;50.972;11.046;2022-08-21T12:42:04;27.70;89.30
5007;DHT22;2522;50.972;11.046;2022-08-21T12:44:36;27.90;88.70
5007;DHT22;2522;50.972;11.046;2022-08-21T12:47:06;28.00;88.60
5007;DHT22;2522;50.972;11.046;2022-08-21T12:49:34;28.00;88.10
5007;DHT22;2522;50.972;11.046;2022-08-21T12:52:02;28.10;88.00
5007;DHT22;2522;50.972;11.046;2022-08-21T12:54:37;28.20;87.80
5007;DHT22;2522;50.972;11.046;2022-08-21T12:57:05;28.10;86.40
5007;DHT22;2522;50.972;11.046;2022-08-21T12:59:36;28.10;85.60
5007;DHT22;2522;50.972;11.046;2022-08-21T13:02:03;28.00;85.90
5007;DHT22;2522;50.972;11.046;2022-08-21T13:04:36;27.90;86.50
5007;DHT22;2522;50.972;11.046;2022-08-21T13:07:05;27.70;86.20
5007;DHT22;2522;50.972;11.046;2022-08-21T13:09:39;27.50;86.90
5007;DHT22;2522;50.972;11.046;2022-08-21T13:12:08;27.30;85.80
5007;DHT22;2522;50.972;11.046;2022-08-21T13:14:36;27.20;86.90
5007;DHT22;2522;50.972;11.046;2022-08-21T13:17:05;27.00;86.00
5007;DHT22;2522;50.972;11.046;2022-08-21T13:19:33;26.80;86.00
5007;DHT22;2522;50.972;11.046;2022-08-21T13:22:00;26.80;85.60
5007;DHT22;2522;50.972;11.046;2022-08-21T13:24:27;26.70;86.40
5007;DHT22;2522;50.972;11.046;2022-08-21T13:26:56;26.50;87.00
5007;DHT22;2522;50.972;11.046;2022-08-21T13:29:28;26.30;87.20
5007;DHT22;2522;50.972;11.046;2022-08-21T13:31:56;26.20;88.00
5007;DHT22;2522;50.972;11.046;2022-08-21T13:34:28;26.00;87.40
5007;DHT22;2522;50.972;11.046;2022-08-21T13:36:57;25.90;88.20
5007;DHT22;2522;50.972;11.046;2022-08-21T13:39:24;26.10;88.00
5007;DHT22;2522;50.972;11.046;2022-08-21T13:41:51;26.20;88.20
5007;DHT22;2522;50.972;11.046;2022-08-21T13:44:22;26.40;87.80
5007;DHT22;2522;50.972;11.046;2022-08-21T13:46:52;26.40;87.60
5007;DHT22;2522;50.972;11.046;2022-08-21T13:49:20;26.50;86.90
5007;DHT22;2522;50.972;11.046;2022-08-21T13:51:48;26.50;85.70
5007;DHT22;2522;50.972;11.046;2022-08-21T13:54:20;26.50;85.90
5007;DHT22;2522;50.972;11.046;2022-08-21T13:56:48;26.40;85.80
5007;DHT22;2522;50.972;11.046;2022-08-21T13:59:24;26.30;84.40
5007;DHT22;2522;50.972;11.046;2022-08-21T14:01:51;26.10;84.10
5007;DHT22;2522;50.972;11.046;2022-08-21T14:04:20;26.00;84.60
5007;DHT22;2522;50.972;11.046;2022-08-21T14:06:47;26.00;85.50
5007;DHT22;2522;50.972;11.046;2022-08-21T14:09:19;26.10;86.60
5007;DHT22;2522;50.972;11.046;2022-08-21T14:11:49;26.20;85.10
5007;DHT22;2522;50.972;11.046;2022-08-21T14:14:19;26.20;84.40
5007;DHT22;2522;50.972;11.046;2022-08-21T14:16:54;26.20;84.10
5007;DHT22;2522;50.972;11.046;2022-08-21T14:19:23;26.20;84.50
5007;DHT22;2522;50.972;11.046;2022-08-21T14:21:49;26.30;83.70
5007;DHT22;2522;50.972;11.046;2022-08-21T14:24:24;26.30;84.10
5007;DHT22;2522;50.972;11.046;2022-08-21T14:26:52;26.40;84.10
5007;DHT22;2522;50.972;11.046;2022-08-21T14:29:20;26.40;84.10
5007;DHT22;2522;50.972;11.046;2022-08-21T14:31:51;26.40;84.40
5007;DHT22;2522;50.972;11.046;2022-08-21T14:34:20;26.40;84.70
5007;DHT22;2522;50.972;11.046;2022-08-21T14:36:47;26.40;84.90
5007;DHT22;2522;50.972;11.046;2022-08-21T14:39:14;26.40;84.20
5007;DHT22;2522;50.972;11.046;2022-08-21T14:41:40;26.40;84.60
5007;DHT22;2522;50.972;11.046;2022-08-21T14:44:07;26.30;83.80
5007;DHT22;2522;50.972;11.046;2022-08-21T14:46:35;26.20;84.30
5007;DHT22;2522;50.972;11.046;2022-08-21T14:49:02;26.10;84.80
5007;DHT22;2522;50.972;11.046;2022-08-21T14:51:30;26.20;85.60
5007;DHT22;2522;50.972;11.046;2022-08-21T14:53:57;26.30;85.40
5007;DHT22;2522;50.972;11.046;2022-08-21T14:56:24;26.40;83.40
5007;DHT22;2522;50.972;11.046;2022-08-21T14:58:51;26.40;82.30
5007;DHT22;2522;50.972;11.046;2022-08-21T15:01:19;26.50;82.20
5007;DHT22;2522;50.972;11.046;2022-08-21T15:03:46;26.50;82.10
5007;DHT22;2522;50.972;11.046;2022-08-21T15:06:14;26.50;82.80
5007;DHT22;2522;50.972;11.046;2022-08-21T15:08:42;26.50;83.10
5007;DHT22;2522;50.972;11.046;2022-08-21T15:11:10;26.50;82.10
5007;DHT22;2522;50.972;11.046;2022-08-21T15:13:37;26.50;81.50
5007;DHT22;2522;50.972;11.046;2022-08-21T15:16:04;26.50;81.00
5007;DHT22;2522;50.972;11.046;2022-08-21T15:18:31;26.50;81.20
5007;DHT22;2522;50.972;11.046;2022-08-21T15:20:58;26.50;80.50
5007;DHT22;2522;50.972;11.046;2022-08-21T15:23:24;26.50;81.20
5007;DHT22;2522;50.972;11.046;2022-08-21T15:25:52;26.50;81.50
5007;DHT22;2522;50.972;11.046;2022-08-21T15:28:19;26.60;79.70
5007;DHT22;2522;50.972;11.046;2022-08-21T15:30:48;26.60;79.20
5007;DHT22;2522;50.972;11.046;2022-08-21T15:33:14;26.60;76.90
5007;DHT22;2522;50.972;11.046;2022-08-21T15:35:41;26.60;76.60
5007;DHT22;2522;50.972;11.046;2022-08-21T15:38:08;26.60;76.90
5007;DHT22;2522;50.972;11.046;2022-08-21T15:40:35;26.50;75.20
5007;DHT22;2522;50.972;11.046;2022-08-21T15:43:03;26.50;74.80
5007;DHT22;2522;50.972;11.046;2022-08-21T15:45:30;26.50;73.90
5007;DHT22;2522;50.972;11.046;2022-08-21T15:47:58;26.50;74.90
5007;DHT22;2522;50.972;11.046;2022-08-21T15:50:26;26.50;74.50
5007;DHT22;2522;50.972;11.046;2022-08-21T15:52:54;26.60;73.60
5007;DHT22;2522;50.972;11.046;2022-08-21T15:55:21;26.50;74.10
5007;DHT22;2522;50.972;11.046;2022-08-21T15:57:48;26.50;75.10
5007;DHT22;2522;50.972;11.046;2022-08-21T16:00:18;26.50;75.30
5007;DHT22;2522;50.972;11.046;2022-08-21T16:02:47;26.40;75.20
5007;DHT22;2522;50.972;11.046;2022-08-21T16:05:15;26.40;75.30
5007;DHT22;2522;50.972;11.046;2022-08-21T16:07:43;26.50;75.30
5007;DHT22;2522;50.972;11.046;2022-08-21T16:10:10;26.50;75.20
5007;DHT22;2522;50.972;11.046;2022-08-21T16:12:38;26.40;75.80
5007;DHT22;2522;50.972;11.046;2022-08-21T16:15:07;26.40;75.90
5007;DHT22;2522;50.972;11.046;2022-08-21T16:17:35;26.40;75.80
5007;DHT22;2522;50.972;11.046;2022-08-21T16:20:03;26.40;75.70
5007;DHT22;2522;50.972;11.046;2022-08-21T16:22:31;26.50;75.50
5007;DHT22;2522;50.972;11.046;2022-08-21T16:24:57;26.40;74.50
5007;DHT22;2522;50.972;11.046;2022-08-21T16:27:24;26.40;74.60
5007;DHT22;2522;50.972;11.046;2022-08-21T16:29:51;26.40;73.70
5007;DHT22;2522;50.972;11.046;2022-08-21T16:32:17;26.40;74.80
5007;DHT22;2522;50.972;11.046;2022-08-21T16:34:48;26.40;75.10
5007;DHT22;2522;50.972;11.046;2022-08-21T16:37:15;26.40;75.60
5007;DHT22;2522;50.972;11.046;2022-08-21T16:39:42;26.40;75.90
5007;DHT22;2522;50.972;11.046;2022-08-21T16:42:09;26.40;75.80
5007;DHT22;2522;50.972;11.046;2022-08-21T16:44:38;26.40;75.90
5007;DHT22;2522;50.972;11.046;2022-08-21T16:47:04;26.40;75.10
5007;DHT22;2522;50.972;11.046;2022-08-21T16:49:32;26.30;75.80
5007;DHT22;2522;50.972;11.046;2022-08-21T16:52:00;26.30;75.70
5007;DHT22;2522;50.972;11.046;2022-08-21T16:54:27;26.20;74.40
5007;DHT22;2522;50.972;11.046;2022-08-21T16:56:55;26.20;74.30
5007;DHT22;2522;50.972;11.046;2022-08-21T16:59:21;26.10;75.10
5007;DHT22;2522;50.972;11.046;2022-08-21T17:01:48;26.10;75.00
5007;DHT22;2522;50.972;11.046;2022-08-21T17:04:15;26.00;74.40
5007;DHT22;2522;50.972;11.046;2022-08-21T17:06:41;26.00;73.10
5007;DHT22;2522;50.972;11.046;2022-08-21T17:09:10;25.90;73.30
5007;DHT22;2522;50.972;11.046;2022-08-21T17:11:38;25.90;72.40
5007;DHT22;2522;50.972;11.046;2022-08-21T17:14:06;25.80;72.80
5007;DHT22;2522;50.972;11.046;2022-08-21T17:16:34;25.80;73.50
5007;DHT22;2522;50.972;11.046;2022-08-21T17:19:02;25.80;72.90
5007;DHT22;2522;50.972;11.046;2022-08-21T17:21:28;25.80;73.10
5007;DHT22;2522;50.972;11.046;2022-08-21T17:23:55;25.70;73.10
5007;DHT22;2522;50.972;11.046;2022-08-21T17:26:23;25.70;72.10
5007;DHT22;2522;50.972;11.046;2022-08-21T17:28:50;25.60;72.30
5007;DHT22;2522;50.972;11.046;2022-08-21T17:31:17;25.60;72.40
5007;DHT22;2522;50.972;11.046;2022-08-21T17:33:45;25.60;72.70
5007;DHT22;2522;50.972;11.046;2022-08-21T17:36:15;25.50;73.00
5007;DHT22;2522;50.972;11.046;2022-08-21T17:38:42;25.50;73.90
5007;DHT22;2522;50.972;11.046;2022-08-21T17:41:08;25.50;75.80
5007;DHT22;2522;50.972;11.046;2022-08-21T17:43:36;25.40;77.20
5007;DHT22;2522;50.972;11.046;2022-08-21T17:46:03;25.30;78.90
5007;DHT22;2522;50.972;11.046;2022-08-21T17:48:30;25.30;79.20
5007;DHT22;2522;50.972;11.046;2022-08-21T17:50:57;25.20;79.70
5007;DHT22;2522;50.972;11.046;2022-08-21T17:53:24;25.10;80.20
5007;DHT22;2522;50.972;11.046;2022-08-21T17:55:50;25.10;80.60
5007;DHT22;2522;50.972;11.046;2022-08-21T17:58:17;25.00;80.90
5007;DHT22;2522;50.972;11.046;2022-08-21T18:00:45;25.00;81.60
5007;DHT22;2522;50.972;11.046;2022-08-21T18:03:13;24.90;82.30
5007;DHT22;2522;50.972;11.046;2022-08-21T18:05:45;24.80;83.20
5007;DHT22;2522;50.972;11.046;2022-08-21T18:08:11;24.60;83.90
5007;DHT22;2522;50.972;11.046;2022-08-21T18:10:39;24.50;84.90
5007;DHT22;2522;50.972;11.046;2022-08-21T18:13:06;24.50;85.00
5007;DHT22;2522;50.972;11.046;2022-08-21T18:15:33;24.40;85.50
5007;DHT22;2522;50.972;11.046;2022-08-21T18:18:02;24.30;85.60
5007;DHT22;2522;50.972;11.046;2022-08-21T18:20:28;24.20;85.90
5007;DHT22;2522;50.972;11.046;2022-08-21T18:22:55;24.10;86.30
5007;DHT22;2522;50.972;11.046;2022-08-21T18:25:21;24.10;86.60
5007;DHT22;2522;50.972;11.046;2022-08-21T18:27:48;24.00;87.00
5007;DHT22;2522;50.972;11.046;2022-08-21T18:30:17;24.00;87.30
5007;DHT22;2522;50.972;11.046;2022-08-21T18:32:44;23.80;87.70
5007;DHT22;2522;50.972;11.046;2022-08-21T18:35:13;23.80;88.10
5007;DHT22;2522;50.972;11.046;2022-08-21T18:37:40;23.80;88.50
5007;DHT22;2522;50.972;11.046;2022-08-21T18:40:07;23.60;88.70
5007;DHT22;2522;50.972;11.046;2022-08-21T18:42:35;23.60;89.00
5007;DHT22;2522;50.972;11.046;2022-08-21T18:45:03;23.50;89.40
5007;DHT22;2522;50.972;11.046;2022-08-21T18:47:33;23.50;89.70
5007;DHT22;2522;50.972;11.046;2022-08-21T18:50:02;23.40;90.00
5007;DHT22;2522;50.972;11.046;2022-08-21T18:52:30;23.30;90.10
5007;DHT22;2522;50.972;11.046;2022-08-21T18:54:57;23.20;90.30
5007;DHT22;2522;50.972;11.046;2022-08-21T18:57:24;23.10;90.50
5007;DHT22;2522;50.972;11.046;2022-08-21T18:59:53;23.00;90.60
5007;DHT22;2522;50.972;11.046;2022-08-21T19:02:20;23.00;91.00
5007;DHT22;2522;50.972;11.046;2022-08-21T19:04:46;22.90;91.00
5007;DHT22;2522;50.972;11.046;2022-08-21T19:07:13;22.80;91.10
5007;DHT22;2522;50.972;11.046;2022-08-21T19:09:42;22.80;91.40
5007;DHT22;2522;50.972;11.046;2022-08-21T19:12:09;22.70;91.50
5007;DHT22;2522;50.972;11.046;2022-08-21T19:14:37;22.60;91.70
5007;DHT22;2522;50.972;11.046;2022-08-21T19:17:03;22.50;91.80
5007;DHT22;2522;50.972;11.046;2022-08-21T19:19:30;22.40;92.00
5007;DHT22;2522;50.972;11.046;2022-08-21T19:21:56;22.40;92.20
5007;DHT22;2522;50.972;11.046;2022-08-21T19:24:23;22.30;92.50
5007;DHT22;2522;50.972;11.046;2022-08-21T19:26:51;22.30;92.70
5007;DHT22;2522;50.972;11.046;2022-08-21T19:29:18;22.20;92.80
5007;DHT22;2522;50.972;11.046;2022-08-21T19:31:45;22.20;93.20
5007;DHT22;2522;50.972;11.046;2022-08-21T19:34:12;22.20;93.30
5007;DHT22;2522;50.972;11.046;2022-08-21T19:36:40;22.00;93.60
5007;DHT22;2522;50.972;11.046;2022-08-21T19:39:07;22.00;94.00
5007;DHT22;2522;50.972;11.046;2022-08-21T19:41:36;21.90;94.10
5007;DHT22;2522;50.972;11.046;2022-08-21T19:44:07;21.90;94.40
5007;DHT22;2522;50.972;11.046;2022-08-21T19:46:35;21.80;94.90
5007;DHT22;2522;50.972;11.046;2022-08-21T19:49:03;21.80;95.00
5007;DHT22;2522;50.972;11.046;2022-08-21T19:51:31;21.70;95.40
5007;DHT22;2522;50.972;11.046;2022-08-21T19:53:59;21.60;95.80
5007;DHT22;2522;50.972;11.046;2022-08-21T19:56:26;21.50;96.10
5007;DHT22;2522;50.972;11.046;2022-08-21T19:58:53;21.40;96.30
5007;DHT22;2522;50.972;11.046;2022-08-21T20:01:22;21.30;96.80
5007;DHT22;2522;50.972;11.046;2022-08-21T20:03:50;21.30;96.60
5007;DHT22;2522;50.972;11.046;2022-08-21T20:06:17;21.20;96.80
5007;DHT22;2522;50.972;11.046;2022-08-21T20:08:44;21.30;97.10
5007;DHT22;2522;50.972;11.046;2022-08-21T20:11:13;21.10;97.90
5007;DHT22;2522;50.972;11.046;2022-08-21T20:13:40;21.10;98.00
5007;DHT22;2522;50.972;11.046;2022-08-21T20:16:09;20.90;98.20
5007;DHT22;2522;50.972;11.046;2022-08-21T20:18:38;20.90;98.30
5007;DHT22;2522;50.972;11.046;2022-08-21T20:21:06;20.90;98.40
5007;DHT22;2522;50.972;11.046;2022-08-21T20:23:35;20.80;99.20
5007;DHT22;2522;50.972;11.046;2022-08-21T20:26:02;20.90;99.60
5007;DHT22;2522;50.972;11.046;2022-08-21T20:28:29;20.90;99.90
5007;DHT22;2522;50.972;11.046;2022-08-21T20:30:56;20.90;99.90
5007;DHT22;2522;50.972;11.046;2022-08-21T20:33:23;20.90;99.90
5007;DHT22;2522;50.972;11.046;2022-08-21T20:35:51;20.90;99.90
5007;DHT22;2522;50.972;11.046;2022-08-21T20:38:19;20.80;99.90
5007;DHT22;2522;50.972;11.046;2022-08-21T20:40:47;20.70;99.90
5007;DHT22;2522;50.972;11.046;2022-08-21T20:43:19;20.80;99.90
5007;DHT22;2522;50.972;11.046;2022-08-21T20:45:46;20.70;99.90
5007;DHT22;2522;50.972;11.046;2022-08-21T20:48:17;20.60;99.90
5007;DHT22;2522;50.972;11.046;2022-08-21T20:50:47;20.60;99.90
5007;DHT22;2522;50.972;11.046;2022-08-21T20:53:22;20.60;99.90
5007;DHT22;2522;50.972;11.046;2022-08-21T20:55:52;20.50;99.90
5007;DHT22;2522;50.972;11.046;2022-08-21T20:58:28;20.50;99.90
5007;DHT22;2522;50.972;11.046;2022-08-21T21:00:59;20.40;99.90